createdAt,value
2022-08-05T00:00:51.605Z,41.89
2022-08-05T00:01:53.190Z,41.83
2022-08-05T00:02:54.824Z,42.38
2022-08-05T00:03:56.735Z,42.96
2022-08-05T00:04:58.913Z,42.52
2022-08-05T00:06:05.165Z,43.02
2022-08-05T00:07:59.389Z,43.14
2022-08-05T00:08:43.909Z,43.26
2022-08-05T00:09:49.507Z,43.18
2022-08-05T00:10:51.400Z,43.54
2022-08-05T00:11:59.655Z,43.27
2022-08-05T00:13:01.400Z,43.47
2022-08-05T00:14:12.908Z,43.23
2022-08-05T00:15:56.050Z,43.29
2022-08-05T00:16:52.476Z,43.31
2022-08-05T00:17:55.508Z,43.68
2022-08-05T00:18:57.224Z,43.81
2022-08-05T00:20:02.759Z,43.87
2022-08-05T00:21:05.188Z,43.74
2022-08-05T00:22:11.052Z,43.73
2022-08-05T00:23:13.314Z,43.75
2022-08-05T00:24:16.137Z,43.70
2022-08-05T00:25:20.859Z,44.16
2022-08-05T00:26:22.569Z,43.78
2022-08-05T00:27:35.786Z,43.63
2022-08-05T00:28:37.932Z,43.42
2022-08-05T00:29:41.225Z,44.38
2022-08-05T00:30:44.144Z,44.10
2022-08-05T00:32:10.618Z,44.27
2022-08-05T00:33:07.248Z,43.91
2022-08-05T00:34:56.929Z,44.28
2022-08-05T00:35:38.835Z,44.39
2022-08-05T00:37:09.766Z,44.32
2022-08-05T00:38:13.648Z,44.48
2022-08-05T00:39:16.469Z,44.36
2022-08-05T00:40:28.201Z,44.34
2022-08-05T00:41:51.491Z,44.17
2022-08-05T00:42:52.427Z,44.34
2022-08-05T00:43:53.908Z,44.33
2022-08-05T00:44:55.652Z,44.24
2022-08-05T00:45:57.697Z,44.09
2022-08-05T00:47:01.925Z,44.11
2022-08-05T00:48:06.517Z,44.28
2022-08-05T00:49:08.592Z,44.45
2022-08-05T00:50:15.609Z,44.40
2022-08-05T00:51:51.580Z,44.51
2022-08-05T00:52:39.144Z,44.21
2022-08-05T00:54:00.032Z,44.81
2022-08-05T00:55:02.282Z,44.92
2022-08-05T00:56:05.550Z,44.77
2022-08-05T00:57:09.495Z,44.94
2022-08-05T00:58:11.556Z,45.02
2022-08-05T00:59:13.123Z,44.64
2022-08-05T01:00:16.884Z,44.73
2022-08-05T01:01:24.754Z,45.09
2022-08-05T01:02:40.314Z,45.13
2022-08-05T01:03:41.846Z,44.95
2022-08-05T01:04:43.331Z,44.82
2022-08-05T01:05:45.256Z,44.94
2022-08-05T01:06:48.764Z,44.71
2022-08-05T01:08:30.362Z,44.81
2022-08-05T01:09:12.352Z,44.47
2022-08-05T01:10:14.118Z,44.56
2022-08-05T01:11:36.906Z,44.58
2022-08-05T01:12:39.036Z,44.79
2022-08-05T01:14:08.848Z,44.83
2022-08-05T01:15:18.169Z,44.74
2022-08-05T01:16:32.192Z,45.21
2022-08-05T01:17:40.299Z,45.17
2022-08-05T01:18:42.658Z,45.23
2022-08-05T01:20:00.702Z,45.27
2022-08-05T01:21:12.790Z,45.37
2022-08-05T01:22:30.593Z,45.49
2022-08-05T01:23:34.919Z,45.38
2022-08-05T01:24:39.656Z,45.31
2022-08-05T01:25:50.281Z,45.21
2022-08-05T01:27:19.297Z,45.17
2022-08-05T01:28:23.271Z,45.61
2022-08-05T01:29:27.359Z,45.49
2022-08-05T01:30:34.121Z,45.42
2022-08-05T01:31:44.893Z,45.68
2022-08-05T01:32:46.844Z,45.56
2022-08-05T01:33:59.497Z,45.61
2022-08-05T01:35:02.312Z,45.51
2022-08-05T01:36:06.701Z,45.54
2022-08-05T01:37:36.698Z,45.46
2022-08-05T01:38:49.620Z,45.77
2022-08-05T01:39:51.648Z,45.55
2022-08-05T01:40:57.208Z,45.52
2022-08-05T01:41:58.762Z,45.68
2022-08-05T01:43:00.943Z,45.49
2022-08-05T01:44:09.923Z,45.54
2022-08-05T01:45:13.415Z,45.70
2022-08-05T01:46:42.850Z,45.68
2022-08-05T01:47:43.415Z,45.76
2022-08-05T01:48:45.968Z,45.60
2022-08-05T01:50:02.094Z,45.93
2022-08-05T01:51:12.096Z,45.83
2022-08-05T01:52:17.989Z,45.79
2022-08-05T01:53:54.527Z,45.94
2022-08-05T01:54:46.267Z,45.91
2022-08-05T01:55:47.963Z,46.05
2022-08-05T01:58:10.211Z,46.22
2022-08-05T01:58:15.942Z,46.37
2022-08-05T01:59:33.891Z,46.34
2022-08-05T02:00:37.394Z,46.35
2022-08-05T02:01:40.082Z,46.32
2022-08-05T02:02:46.499Z,46.48
2022-08-05T02:03:56.517Z,46.48
2022-08-05T02:05:03.087Z,46.43
2022-08-05T02:06:33.462Z,46.49
2022-08-05T02:07:30.208Z,46.51
2022-08-05T02:08:33.296Z,46.46
2022-08-05T02:09:35.337Z,46.57
2022-08-05T02:10:42.193Z,46.67
2022-08-05T02:12:04.902Z,46.61
2022-08-05T02:13:13.060Z,46.75
2022-08-05T02:14:21.415Z,46.83
2022-08-05T02:15:33.292Z,46.69
2022-08-05T02:17:02.436Z,46.74
2022-08-05T02:18:28.318Z,46.67
2022-08-05T02:19:34.594Z,46.70
2022-08-05T02:20:58.945Z,46.87
2022-08-05T02:22:09.079Z,46.86
2022-08-05T02:23:21.258Z,47.05
2022-08-05T02:24:24.220Z,47.12
2022-08-05T02:25:33.456Z,47.04
2022-08-05T02:26:54.694Z,47.04
2022-08-05T02:28:08.910Z,47.49
2022-08-05T02:29:21.538Z,47.68
2022-08-05T02:30:26.955Z,47.58
2022-08-05T02:31:34.859Z,47.96
2022-08-05T02:32:36.879Z,48.67
2022-08-05T02:33:42.414Z,49.04
2022-08-05T02:34:43.913Z,49.29
2022-08-05T02:36:00.592Z,49.78
2022-08-05T02:37:04.337Z,50.15
2022-08-05T02:38:06.051Z,50.06
2022-08-05T02:39:11.186Z,50.53
2022-08-05T02:40:13.305Z,50.68
2022-08-05T02:41:17.819Z,50.79
2022-08-05T02:42:25.823Z,51.34
2022-08-05T02:43:29.287Z,51.86
2022-08-05T02:44:31.087Z,51.57
2022-08-05T02:45:51.459Z,51.35
2022-08-05T02:47:00.439Z,51.19
2022-08-05T02:48:12.152Z,51.85
2022-08-05T02:49:14.534Z,52.25
2022-08-05T02:50:18.085Z,52.33
2022-08-05T02:51:19.768Z,52.26
2022-08-05T02:52:30.917Z,53.15
2022-08-05T02:53:39.191Z,54.00
2022-08-05T02:54:42.728Z,53.45
2022-08-05T02:55:59.561Z,52.99
2022-08-05T02:57:01.966Z,53.57
2022-08-05T02:58:09.763Z,54.16
2022-08-05T02:59:14.338Z,54.14
2022-08-05T03:00:16.481Z,54.81
2022-08-05T03:01:19.700Z,54.50
2022-08-05T03:02:22.898Z,54.20
2022-08-05T03:03:24.492Z,53.54
2022-08-05T03:04:26.575Z,54.12
2022-08-05T03:06:53.999Z,54.36
2022-08-05T03:06:54.001Z,54.18
2022-08-05T03:08:08.674Z,54.26
2022-08-05T03:09:15.774Z,53.64
2022-08-05T03:10:24.363Z,53.48
2022-08-05T03:11:54.715Z,53.55
2022-08-05T03:12:49.462Z,54.39
2022-08-05T03:14:03.438Z,54.29
2022-08-05T03:15:06.872Z,54.80
2022-08-05T03:16:09.020Z,55.06
2022-08-05T03:17:10.757Z,55.95
2022-08-05T03:18:12.400Z,56.11
2022-08-05T03:19:33.093Z,56.23
2022-08-05T03:20:36.193Z,56.37
2022-08-05T03:21:41.384Z,55.81
2022-08-05T03:22:44.010Z,55.93
2022-08-05T03:23:51.745Z,56.07
2022-08-05T03:24:53.274Z,56.05
2022-08-05T03:26:04.613Z,55.87
2022-08-05T03:27:16.573Z,56.33
2022-08-05T03:28:19.779Z,56.71
2022-08-05T03:29:21.412Z,56.67
2022-08-05T03:30:33.404Z,56.75
2022-08-05T03:31:55.587Z,56.57
2022-08-05T03:32:56.891Z,56.44
2022-08-05T03:33:58.473Z,56.41
2022-08-05T03:35:01.601Z,56.76
2022-08-05T03:36:06.664Z,57.06
2022-08-05T03:37:13.664Z,56.50
2022-08-05T03:38:15.875Z,56.95
2022-08-05T03:39:20.189Z,56.61
2022-08-05T03:40:32.083Z,55.38
2022-08-05T03:41:38.762Z,54.77
2022-08-05T03:42:52.496Z,54.26
2022-08-05T03:44:08.598Z,53.78
2022-08-05T03:45:21.439Z,53.62
2022-08-05T03:46:23.911Z,53.48
2022-08-05T03:47:35.429Z,53.48
2022-08-05T03:48:37.457Z,53.67
2022-08-05T03:49:51.484Z,53.88
2022-08-05T03:52:37.866Z,53.80
2022-08-05T03:52:50.492Z,53.93
2022-08-05T03:55:52.518Z,54.52
2022-08-05T03:56:06.147Z,54.39
2022-08-05T03:56:46.226Z,54.38
2022-08-05T03:57:48.285Z,54.48
2022-08-05T03:58:51.138Z,54.52
2022-08-05T04:00:03.924Z,54.48
2022-08-05T04:01:13.762Z,54.40
2022-08-05T04:02:17.600Z,54.60
2022-08-05T04:03:38.125Z,55.04
2022-08-05T04:04:39.792Z,54.48
2022-08-05T04:05:46.458Z,54.85
2022-08-05T04:06:51.152Z,54.73
2022-08-05T04:07:58.653Z,54.84
2022-08-05T04:09:00.520Z,54.95
2022-08-05T04:10:03.199Z,54.67
2022-08-05T04:11:05.179Z,54.80
2022-08-05T04:12:23.762Z,54.69
2022-08-05T04:13:27.847Z,55.04
2022-08-05T04:14:48.131Z,55.18
2022-08-05T04:16:03.362Z,55.26
2022-08-05T04:17:06.415Z,55.75
2022-08-05T04:18:09.537Z,55.11
2022-08-05T04:19:12.786Z,55.40
2022-08-05T04:20:22.125Z,55.08
2022-08-05T04:22:09.746Z,55.02
2022-08-05T04:22:46.868Z,55.07
2022-08-05T04:24:05.659Z,55.05
2022-08-05T04:25:08.706Z,55.27
2022-08-05T04:26:13.575Z,55.42
2022-08-05T04:27:15.474Z,55.45
2022-08-05T04:28:17.423Z,55.32
2022-08-05T04:29:18.947Z,55.08
2022-08-05T04:30:21.340Z,55.03
2022-08-05T04:31:22.872Z,54.79
2022-08-05T04:32:31.235Z,54.98
2022-08-05T04:33:54.604Z,55.19
2022-08-05T04:34:57.493Z,55.01
2022-08-05T04:36:11.403Z,55.46
2022-08-05T04:37:20.742Z,55.42
2022-08-05T04:38:39.938Z,55.25
2022-08-05T04:39:42.026Z,55.09
2022-08-05T04:40:44.483Z,55.10
2022-08-05T04:41:52.500Z,55.30
2022-08-05T04:42:54.051Z,54.95
2022-08-05T04:43:55.545Z,55.29
2022-08-05T04:44:57.101Z,54.95
2022-08-05T04:46:04.092Z,55.42
2022-08-05T04:47:08.939Z,55.24
2022-08-05T04:48:18.493Z,55.34
2022-08-05T04:49:38.124Z,55.22
2022-08-05T04:51:02.537Z,54.94
2022-08-05T04:52:11.398Z,55.26
2022-08-05T04:53:13.476Z,55.23
2022-08-05T04:54:15.623Z,54.80
2022-08-05T04:55:17.196Z,54.70
2022-08-05T04:56:37.390Z,55.21
2022-08-05T04:57:39.057Z,54.94
2022-08-05T04:58:49.194Z,55.18
2022-08-05T04:59:50.674Z,54.87
2022-08-05T05:00:52.178Z,55.28
2022-08-05T05:02:35.634Z,55.02
2022-08-05T05:03:20.298Z,55.30
2022-08-05T05:04:21.994Z,54.92
2022-08-05T05:05:28.933Z,54.90
2022-08-05T05:06:40.724Z,55.18
2022-08-05T05:07:55.216Z,55.11
2022-08-05T05:08:57.863Z,54.78
2022-08-05T05:10:02.235Z,54.91
2022-08-05T05:11:04.539Z,54.85
2022-08-05T05:12:07.198Z,54.84
2022-08-05T05:13:12.741Z,55.01
2022-08-05T05:14:16.145Z,55.35
2022-08-05T05:15:56.369Z,55.31
2022-08-05T05:16:39.431Z,55.16
2022-08-05T05:17:55.797Z,54.63
2022-08-05T05:19:18.796Z,54.68
2022-08-05T05:20:23.861Z,54.66
2022-08-05T05:21:30.381Z,54.80
2022-08-05T05:22:34.998Z,54.80
2022-08-05T05:24:03.721Z,54.83
2022-08-05T05:25:17.023Z,54.65
2022-08-05T05:26:18.935Z,54.66
2022-08-05T05:27:20.414Z,54.72
2022-08-05T05:28:22.940Z,54.95
2022-08-05T05:29:40.809Z,55.45
2022-08-05T05:30:49.763Z,55.16
2022-08-05T05:31:51.675Z,54.82
2022-08-05T05:32:54.551Z,54.63
2022-08-05T05:33:59.236Z,54.76
2022-08-05T05:35:03.923Z,54.94
2022-08-05T05:36:07.658Z,54.53
2022-08-05T05:37:09.161Z,54.38
2022-08-05T05:38:14.196Z,54.35
2022-08-05T05:39:15.930Z,54.19
2022-08-05T05:40:21.229Z,54.48
2022-08-05T05:41:40.538Z,54.18
2022-08-05T05:42:43.450Z,54.25
2022-08-05T05:43:56.745Z,54.19
2022-08-05T05:45:00.251Z,54.24
2022-08-05T05:46:05.162Z,54.54
2022-08-05T05:47:13.319Z,54.37
2022-08-05T05:48:27.559Z,54.18
2022-08-05T05:49:29.420Z,54.20
2022-08-05T05:50:31.056Z,54.50
2022-08-05T05:51:50.342Z,54.47
2022-08-05T05:52:52.336Z,54.07
2022-08-05T05:53:58.564Z,54.10
2022-08-05T05:55:01.816Z,54.04
2022-08-05T05:56:09.446Z,53.92
2022-08-05T05:57:24.201Z,54.08
2022-08-05T05:58:31.731Z,53.90
2022-08-05T05:59:33.971Z,53.84
2022-08-05T06:00:41.936Z,53.67
2022-08-05T06:01:57.035Z,53.57
2022-08-05T06:02:58.940Z,53.62
2022-08-05T06:04:03.557Z,53.44
2022-08-05T06:05:10.500Z,53.84
2022-08-05T06:06:18.338Z,53.68
2022-08-05T06:07:22.484Z,53.76
2022-08-05T06:08:31.507Z,53.58
2022-08-05T06:09:50.181Z,53.71
2022-08-05T06:10:55.798Z,53.57
2022-08-05T06:12:01.768Z,53.54
2022-08-05T06:13:05.003Z,53.25
2022-08-05T06:14:07.527Z,53.18
2022-08-05T06:15:12.350Z,52.95
2022-08-05T06:16:28.395Z,53.19
2022-08-05T06:17:53.136Z,53.14
2022-08-05T06:18:55.078Z,53.14
2022-08-05T06:19:59.527Z,52.96
2022-08-05T06:21:01.496Z,52.87
2022-08-05T06:22:03.482Z,52.77
2022-08-05T06:23:05.019Z,52.66
2022-08-05T06:24:07.806Z,53.00
2022-08-05T06:25:24.385Z,52.93
2022-08-05T06:26:37.290Z,52.89
2022-08-05T06:28:12.442Z,52.97
2022-08-05T06:29:03.447Z,53.29
2022-08-05T06:30:17.809Z,53.28
2022-08-05T06:31:22.579Z,53.15
2022-08-05T06:32:33.708Z,53.23
2022-08-05T06:34:07.858Z,53.03
2022-08-05T06:34:57.840Z,53.04
2022-08-05T06:36:05.646Z,53.39
2022-08-05T06:37:11.025Z,53.10
2022-08-05T06:38:13.924Z,52.79
2022-08-05T06:39:15.518Z,52.44
2022-08-05T06:40:17.880Z,52.21
2022-08-05T06:41:22.167Z,52.32
2022-08-05T06:42:24.076Z,52.85
2022-08-05T06:43:57.957Z,53.70
2022-08-05T06:44:49.293Z,53.81
2022-08-05T06:46:04.189Z,53.51
2022-08-05T06:47:10.324Z,54.07
2022-08-05T06:48:47.300Z,55.18
2022-08-05T06:50:01.185Z,55.63
2022-08-05T06:51:09.530Z,56.09
2022-08-05T06:52:36.897Z,57.17
2022-08-05T06:53:33.444Z,57.06
2022-08-05T06:54:40.947Z,57.72
2022-08-05T06:55:42.449Z,59.14
2022-08-05T06:56:55.163Z,59.30
2022-08-05T06:58:20.411Z,59.05
2022-08-05T06:59:30.795Z,59.84
2022-08-05T07:00:41.124Z,59.67
2022-08-05T07:01:42.848Z,60.11
2022-08-05T07:02:47.713Z,60.06
2022-08-05T07:03:55.342Z,60.21
2022-08-05T07:04:56.873Z,59.82
2022-08-05T07:05:59.689Z,60.28
2022-08-05T07:07:01.195Z,60.15
2022-08-05T07:08:02.823Z,59.82
2022-08-05T07:09:05.703Z,59.81
2022-08-05T07:10:07.632Z,59.58
2022-08-05T07:11:15.102Z,60.32
2022-08-05T07:12:36.025Z,60.26
2022-08-05T07:13:59.713Z,61.69
2022-08-05T07:15:34.211Z,62.18
2022-08-05T07:18:00.620Z,62.89
2022-08-05T07:18:17.686Z,63.38
2022-08-05T07:20:23.049Z,62.72
2022-08-05T07:20:50.564Z,62.54
2022-08-05T07:22:00.492Z,62.73
2022-08-05T07:23:02.769Z,62.27
2022-08-05T07:24:09.194Z,62.63
2022-08-05T07:25:55.682Z,62.54
2022-08-05T07:26:34.533Z,62.68
2022-08-05T07:27:58.206Z,63.29
2022-08-05T07:28:57.599Z,63.28
2022-08-05T07:30:24.297Z,63.87
2022-08-05T07:31:41.066Z,63.15
2022-08-05T07:32:44.334Z,62.76
2022-08-05T07:33:52.480Z,63.34
2022-08-05T07:34:57.989Z,63.11
2022-08-05T07:36:19.699Z,63.15
2022-08-05T07:37:21.801Z,62.85
2022-08-05T07:38:32.037Z,62.33
2022-08-05T07:40:04.290Z,62.17
2022-08-05T07:41:00.271Z,62.10
2022-08-05T07:42:08.002Z,61.95
2022-08-05T07:43:20.510Z,62.15
2022-08-05T07:44:22.608Z,62.01
2022-08-05T07:45:56.616Z,62.07
2022-08-05T07:46:48.299Z,61.89
2022-08-05T07:47:50.735Z,61.71
2022-08-05T07:49:03.350Z,61.67
2022-08-05T07:50:06.982Z,61.53
2022-08-05T07:51:23.092Z,61.84
2022-08-05T07:52:26.433Z,61.71
2022-08-05T07:53:36.818Z,61.42
2022-08-05T07:54:49.535Z,61.54
2022-08-05T07:56:06.153Z,61.22
2022-08-05T07:57:17.720Z,61.85
2022-08-05T07:58:57.447Z,61.83
2022-08-05T07:59:55.653Z,61.65
2022-08-05T08:00:57.229Z,62.09
2022-08-05T08:01:58.790Z,61.69
2022-08-05T08:03:13.609Z,61.68
2022-08-05T08:04:17.357Z,61.60
2022-08-05T08:05:39.423Z,61.63
2022-08-05T08:06:41.343Z,61.59
2022-08-05T08:07:58.936Z,61.43
2022-08-05T08:09:00.919Z,61.38
2022-08-05T08:10:02.594Z,61.98
2022-08-05T08:11:04.126Z,61.84
2022-08-05T08:12:29.687Z,62.09
2022-08-05T08:13:32.112Z,61.86
2022-08-05T08:14:46.833Z,61.90
2022-08-05T08:16:34.668Z,62.05
2022-08-05T08:17:15.791Z,61.75
2022-08-05T08:18:20.759Z,61.86
2022-08-05T08:20:10.116Z,61.68
2022-08-05T08:21:02.962Z,61.94
2022-08-05T08:22:05.576Z,62.76
2022-08-05T08:23:11.503Z,62.41
2022-08-05T08:24:51.061Z,62.50
2022-08-05T08:25:59.945Z,62.60
2022-08-05T08:27:06.944Z,63.15
2022-08-05T08:28:11.344Z,63.61
2022-08-05T08:30:04.280Z,63.07
2022-08-05T08:30:47.476Z,63.18
2022-08-05T08:31:50.042Z,62.82
2022-08-05T08:32:51.628Z,62.74
2022-08-05T08:33:55.075Z,62.52
2022-08-05T08:34:57.700Z,62.36
2022-08-05T08:36:18.442Z,62.24
2022-08-05T08:37:21.500Z,61.90
2022-08-05T08:38:35.544Z,62.39
2022-08-05T08:39:38.170Z,63.14
2022-08-05T08:40:51.757Z,63.41
2022-08-05T08:41:59.555Z,63.29
2022-08-05T08:44:57.882Z,63.19
2022-08-05T08:45:22.762Z,63.25
2022-08-05T08:45:46.167Z,63.51
2022-08-05T08:46:48.447Z,62.79
2022-08-05T08:48:10.469Z,62.31
2022-08-05T08:50:12.880Z,61.25
2022-08-05T08:51:22.519Z,60.88
2022-08-05T08:52:18.574Z,60.61
2022-08-05T08:53:20.082Z,60.18
2022-08-05T08:54:21.670Z,60.24
2022-08-05T08:56:02.976Z,60.48
2022-08-05T08:56:50.620Z,60.84
2022-08-05T08:57:58.441Z,61.15
2022-08-05T08:59:00.614Z,61.29
2022-08-05T09:00:02.199Z,59.99
2022-08-05T09:01:06.331Z,59.38
2022-08-05T09:02:12.913Z,59.79
2022-08-05T09:03:16.120Z,58.28
2022-08-05T09:04:20.543Z,58.54
2022-08-05T09:05:38.494Z,58.38
2022-08-05T09:06:44.387Z,58.17
2022-08-05T09:07:57.521Z,58.31
2022-08-05T09:09:00.508Z,58.18
2022-08-05T09:10:03.457Z,58.72
2022-08-05T09:11:07.292Z,58.90
2022-08-05T09:12:27.235Z,59.66
2022-08-05T09:13:31.910Z,59.79
2022-08-05T09:14:56.648Z,59.50
2022-08-05T09:16:01.475Z,59.72
2022-08-05T09:17:04.369Z,58.36
2022-08-05T09:18:09.832Z,58.22
2022-08-05T09:19:15.057Z,58.02
2022-08-05T09:20:36.675Z,58.49
2022-08-05T09:22:22.290Z,58.53
2022-08-05T09:23:05.573Z,59.02
2022-08-05T09:24:12.830Z,59.07
2022-08-05T09:25:24.285Z,58.69
2022-08-05T09:26:38.932Z,59.36
2022-08-05T09:28:05.465Z,59.16
2022-08-05T09:29:07.257Z,59.31
2022-08-05T09:30:16.463Z,59.04
2022-08-05T09:32:38.827Z,58.87
2022-08-05T09:32:42.965Z,59.17
2022-08-05T09:33:51.984Z,58.88
2022-08-05T09:34:55.429Z,59.13
2022-08-05T09:36:11.555Z,59.19
2022-08-05T09:37:18.399Z,59.08
2022-08-05T09:38:40.583Z,59.54
2022-08-05T09:39:46.042Z,59.59
2022-08-05T09:41:12.417Z,59.15
2022-08-05T09:42:33.667Z,59.54
2022-08-05T09:43:44.339Z,59.19
2022-08-05T09:44:51.598Z,58.73
2022-08-05T09:46:06.569Z,59.03
2022-08-05T09:47:17.082Z,59.00
2022-08-05T09:48:28.452Z,59.31
2022-08-05T09:49:54.426Z,58.48
2022-08-05T09:50:53.439Z,57.05
2022-08-05T09:51:54.978Z,57.14
2022-08-05T09:52:57.861Z,57.55
2022-08-05T09:54:00.460Z,57.67
2022-08-05T09:55:55.360Z,55.63
2022-08-05T09:56:29.233Z,54.48
2022-08-05T09:57:39.524Z,53.77
2022-08-05T09:58:41.936Z,53.91
2022-08-05T09:59:43.834Z,54.32
2022-08-05T10:00:52.680Z,53.80
2022-08-05T10:01:58.355Z,53.71
2022-08-05T10:03:00.187Z,53.79
2022-08-05T10:04:10.439Z,53.67
2022-08-05T10:05:13.308Z,54.41
2022-08-05T10:06:15.917Z,54.90
2022-08-05T10:07:20.964Z,53.84
2022-08-05T10:08:39.190Z,51.86
2022-08-05T10:10:04.064Z,52.46
2022-08-05T10:11:15.729Z,52.29
2022-08-05T10:12:30.643Z,52.61
2022-08-05T10:13:45.841Z,53.30
2022-08-05T10:14:49.582Z,52.36
2022-08-05T10:15:58.208Z,52.27
2022-08-05T10:17:14.150Z,51.24
2022-08-05T10:18:33.839Z,51.20
2022-08-05T10:20:02.917Z,51.93
2022-08-05T10:20:58.792Z,52.19
2022-08-05T10:22:08.053Z,52.00
2022-08-05T10:23:34.181Z,52.02
2022-08-05T10:24:39.822Z,51.44
2022-08-05T10:25:41.435Z,52.06
2022-08-05T10:26:51.170Z,52.13
2022-08-05T10:28:12.960Z,52.00
2022-08-05T10:29:23.549Z,51.37
2022-08-05T10:32:47.374Z,50.96
2022-08-05T10:32:53.996Z,51.00
2022-08-05T10:33:14.925Z,50.92
2022-08-05T10:34:16.965Z,50.84
2022-08-05T10:35:18.676Z,50.63
2022-08-05T10:36:26.148Z,50.21
2022-08-05T10:37:40.424Z,49.38
2022-08-05T10:38:46.980Z,49.11
2022-08-05T10:40:03.039Z,49.14
2022-08-05T10:41:23.249Z,48.50
2022-08-05T10:42:32.346Z,48.89
2022-08-05T10:43:36.570Z,48.83
2022-08-05T10:44:38.987Z,49.19
2022-08-05T10:45:43.502Z,48.51
2022-08-05T10:46:45.258Z,48.68
2022-08-05T10:47:47.121Z,48.89
2022-08-05T10:49:10.445Z,49.06
2022-08-05T10:50:20.754Z,49.46
2022-08-05T10:51:59.906Z,49.59
2022-08-05T10:53:02.452Z,49.54
2022-08-05T10:54:28.484Z,49.41
2022-08-05T10:55:27.293Z,49.78
2022-08-05T10:56:29.860Z,49.91
2022-08-05T10:57:33.661Z,50.15
2022-08-05T10:58:48.629Z,50.70
2022-08-05T11:00:09.989Z,50.39
2022-08-05T11:01:28.236Z,51.06
2022-08-05T11:02:39.766Z,50.97
2022-08-05T11:04:04.776Z,50.97
2022-08-05T11:05:10.695Z,50.85
2022-08-05T11:06:15.069Z,50.08
2022-08-05T11:07:19.072Z,49.88
2022-08-05T11:08:37.293Z,49.98
2022-08-05T11:09:46.583Z,49.63
2022-08-05T11:10:50.318Z,49.06
2022-08-05T11:12:03.179Z,48.34
2022-08-05T11:13:05.097Z,49.05
2022-08-05T11:14:06.715Z,48.86
2022-08-05T11:15:19.842Z,48.98
2022-08-05T11:16:23.110Z,48.73
2022-08-05T11:18:09.538Z,49.31
2022-08-05T11:20:16.949Z,49.24
2022-08-05T11:20:48.400Z,49.05
2022-08-05T11:21:49.955Z,49.10
2022-08-05T11:22:53.933Z,48.85
2022-08-05T11:24:14.744Z,48.90
2022-08-05T11:26:05.850Z,48.23
2022-08-05T11:26:49.474Z,48.58
2022-08-05T11:28:00.688Z,48.33
2022-08-05T11:29:11.472Z,47.68
2022-08-05T11:30:15.067Z,48.50
2022-08-05T11:31:19.565Z,48.85
2022-08-05T11:32:38.374Z,47.99
2022-08-05T11:33:48.480Z,47.71
2022-08-05T11:34:54.158Z,48.19
2022-08-05T11:36:07.422Z,48.00
2022-08-05T11:38:26.148Z,48.35
2022-08-05T11:38:51.734Z,48.19
2022-08-05T11:40:00.798Z,48.37
2022-08-05T11:41:54.793Z,47.97
2022-08-05T11:42:37.777Z,48.12
2022-08-05T11:44:06.574Z,46.93
2022-08-05T11:45:06.151Z,46.71
2022-08-05T11:46:36.746Z,46.75
2022-08-05T11:47:49.907Z,47.65
2022-08-05T11:48:52.248Z,47.56
2022-08-05T11:49:57.383Z,47.42
2022-08-05T11:50:59.579Z,47.03
2022-08-05T11:52:01.130Z,45.91
2022-08-05T11:53:04.307Z,46.05
2022-08-05T11:54:11.771Z,46.61
2022-08-05T11:55:15.594Z,46.03
2022-08-05T11:56:17.148Z,46.03
2022-08-05T11:57:26.016Z,46.16
2022-08-05T11:58:31.428Z,46.12
2022-08-05T11:59:49.936Z,45.87
2022-08-05T12:01:00.503Z,45.38
2022-08-05T12:02:03.022Z,45.28
2022-08-05T12:03:28.479Z,45.83
2022-08-05T12:04:41.663Z,46.50
2022-08-05T12:05:44.570Z,45.64
2022-08-05T12:06:48.851Z,45.98
2022-08-05T12:08:09.529Z,45.56
2022-08-05T12:09:20.085Z,45.90
2022-08-05T12:10:21.771Z,45.32
2022-08-05T12:11:23.252Z,44.96
2022-08-05T12:12:25.819Z,44.90
2022-08-05T12:13:47.556Z,45.04
2022-08-05T12:14:48.921Z,45.22
2022-08-05T12:15:50.477Z,44.88
2022-08-05T12:16:57.427Z,44.03
2022-08-05T12:18:03.860Z,43.63
2022-08-05T12:20:26.940Z,43.47
2022-08-05T12:20:38.420Z,44.04
2022-08-05T12:21:44.298Z,43.96
2022-08-05T12:22:47.443Z,44.01
2022-08-05T12:24:05.121Z,44.37
2022-08-05T12:25:07.482Z,44.32
2022-08-05T12:26:09.273Z,44.32
2022-08-05T12:27:21.332Z,44.11
2022-08-05T12:28:30.884Z,44.27
2022-08-05T12:29:38.695Z,44.29
2022-08-05T12:30:46.132Z,44.29
2022-08-05T12:31:53.502Z,44.34
2022-08-05T12:32:58.663Z,44.46
2022-08-05T12:34:09.163Z,44.69
2022-08-05T12:35:22.007Z,45.09
2022-08-05T12:36:23.536Z,44.69
2022-08-05T12:37:30.240Z,44.47
2022-08-05T12:38:33.531Z,44.46
2022-08-05T12:39:41.034Z,44.38
2022-08-05T12:40:44.174Z,43.97
2022-08-05T12:41:45.860Z,44.22
2022-08-05T12:42:47.414Z,44.12
2022-08-05T12:43:54.415Z,44.05
2022-08-05T12:45:02.188Z,43.85
2022-08-05T12:46:03.678Z,43.86
2022-08-05T12:47:12.447Z,43.71
2022-08-05T12:48:27.417Z,43.69
2022-08-05T12:50:04.339Z,43.95
2022-08-05T12:51:21.564Z,44.00
2022-08-05T12:52:28.346Z,43.96
2022-08-05T12:53:37.064Z,44.35
2022-08-05T12:54:40.379Z,44.44
2022-08-05T12:55:42.439Z,44.68
2022-08-05T12:56:47.120Z,44.33
2022-08-05T12:58:51.534Z,44.39
2022-08-05T12:59:21.070Z,44.58
2022-08-05T13:02:01.961Z,44.25
2022-08-05T13:02:07.494Z,44.35
2022-08-05T13:03:12.312Z,44.33
2022-08-05T13:04:20.889Z,44.57
2022-08-05T13:05:23.339Z,44.24
2022-08-05T13:06:25.982Z,44.27
2022-08-05T13:07:55.973Z,44.12
2022-08-05T13:08:52.444Z,44.27
2022-08-05T13:09:57.031Z,44.32
2022-08-05T13:11:02.726Z,44.45
2022-08-05T13:12:13.204Z,44.37
2022-08-05T13:14:05.714Z,44.29
2022-08-05T13:14:42.720Z,44.35
2022-08-05T13:15:50.839Z,44.50
2022-08-05T13:16:52.768Z,44.62
2022-08-05T13:17:59.365Z,44.95
2022-08-05T13:19:01.074Z,44.76
2022-08-05T13:20:05.279Z,44.77
2022-08-05T13:21:08.141Z,44.56
2022-08-05T13:22:12.247Z,44.44
2022-08-05T13:23:13.815Z,44.26
2022-08-05T13:24:27.546Z,44.36
2022-08-05T13:25:59.170Z,44.44
2022-08-05T13:27:02.082Z,44.36
2022-08-05T13:28:05.039Z,44.30
2022-08-05T13:29:06.587Z,44.03
2022-08-05T13:30:33.535Z,44.05
2022-08-05T13:31:34.034Z,44.37
2022-08-05T13:32:54.045Z,44.57
2022-08-05T13:34:21.230Z,44.61
2022-08-05T13:35:26.216Z,44.59
2022-08-05T13:36:34.328Z,44.17
2022-08-05T13:37:35.919Z,44.31
2022-08-05T13:38:42.400Z,44.43
2022-08-05T13:40:13.776Z,44.68
2022-08-05T13:41:06.345Z,44.68
2022-08-05T13:42:14.596Z,44.54
2022-08-05T13:43:22.034Z,44.61
2022-08-05T13:44:24.099Z,44.16
2022-08-05T13:45:33.954Z,44.36
2022-08-05T13:48:09.222Z,44.60
2022-08-05T13:49:23.320Z,44.54
2022-08-05T13:50:24.959Z,44.46
2022-08-05T13:51:28.771Z,44.52
2022-08-05T13:52:30.287Z,44.30
2022-08-05T13:53:34.601Z,44.46
2022-08-05T13:54:53.245Z,44.44
2022-08-05T13:55:58.753Z,44.77
2022-08-05T13:57:03.262Z,44.65
2022-08-05T13:58:07.832Z,44.57
2022-08-05T13:59:20.080Z,44.54
2022-08-05T14:00:26.903Z,44.38
2022-08-05T14:01:44.301Z,44.18
2022-08-05T14:02:48.223Z,44.43
2022-08-05T14:04:09.895Z,44.40
2022-08-05T14:05:12.029Z,44.46
2022-08-05T14:06:26.792Z,44.54
2022-08-05T14:07:59.476Z,44.53
2022-08-05T14:08:53.464Z,44.50
2022-08-05T14:09:56.007Z,44.49
2022-08-05T14:10:59.793Z,44.37
2022-08-05T14:12:18.223Z,44.21
2022-08-05T14:13:32.282Z,44.09
2022-08-05T14:14:36.015Z,43.95
2022-08-05T14:16:09.217Z,44.05
2022-08-05T14:16:59.938Z,44.17
2022-08-05T14:18:02.472Z,44.19
2022-08-05T14:19:05.396Z,44.85
2022-08-05T14:20:07.773Z,45.87
2022-08-05T14:22:06.733Z,46.03
2022-08-05T14:22:34.526Z,46.31
2022-08-05T14:23:37.296Z,46.73
2022-08-05T14:24:39.895Z,47.48
2022-08-05T14:25:45.069Z,47.27
2022-08-05T14:27:02.054Z,47.47
2022-08-05T14:28:15.885Z,47.24
2022-08-05T14:29:24.386Z,47.16
2022-08-05T14:30:27.979Z,47.39
2022-08-05T14:32:02.558Z,46.98
2022-08-05T14:32:51.671Z,46.86
2022-08-05T14:33:59.661Z,46.67
2022-08-05T14:35:01.960Z,46.72
2022-08-05T14:36:03.835Z,46.85
2022-08-05T14:37:05.394Z,46.94
2022-08-05T14:38:06.908Z,47.10
2022-08-05T14:39:28.513Z,47.12
2022-08-05T14:40:30.755Z,46.61
2022-08-05T14:41:32.572Z,46.24
2022-08-05T14:42:34.708Z,46.24
2022-08-05T14:44:02.221Z,46.10
2022-08-05T14:45:01.076Z,46.18
2022-08-05T14:46:02.655Z,46.00
2022-08-05T14:47:04.493Z,46.13
2022-08-05T14:48:08.858Z,45.98
2022-08-05T14:49:10.556Z,45.90
2022-08-05T14:50:18.179Z,45.97
2022-08-05T14:51:20.451Z,46.15
2022-08-05T14:52:50.126Z,45.84
2022-08-05T14:53:44.423Z,45.92